Oro Valley, AZ (85737)

3:43 PM MST on September 02, 2015 (GMT -0700)
Catalina Shadows Station | | Change Station
CLOSE
Current Station
Personal Weather Station
Location: Tucson, AZ
Elevation: 2700 ft
Nearby Weather Stations

Elev 2700 ft 32.42 °N, 110.95 °W | Updated 4 seconds ago

Clear
Clear
95.5 °F
Feels Like 93 °F
N
6.5
Wind Variable Wind from SSE
Gusts 7.4 mph

Today
High -- | Low -- °F
--% Chance of Precip.
Yesterday
High -- | Low -- °F
Precip. -- in
5:59 AM 6:47 PM
Waning Gibbous, 76% visible
Pressure 29.83 in
Visibility 10.0 miles
Clouds Clear
Heat Index 93 °F
Dew Point 52 °F
Humidity 23%
Rainfall 0.00 in
Snow Depth Not available.
UV 2.0 out of 12
Pollen 5.20 out of 12
Air Quality Not available.
Flu Activity Not available.
METAR KDMA 022158Z AUTO 11018G24KT 10SM CLR 31/17 A2996 RMK AO2 PK WND 14030/35 LTG DSNT E SLP099 T03110171 $
Pressure 29.83 in
Visibility 10.0 miles
Clouds Clear
Heat Index 93 °F
Dew Point 52 °F
Humidity 23%
Rainfall 0.00 in
Snow Depth Not available.
UV 2.0 out of 12
Pollen 5.20 out of 12
Air Quality Not available.
Flu Activity Not available.
METAR KDMA 022158Z AUTO 11018G24KT 10SM CLR 31/17 A2996 RMK AO2 PK WND 14030/35 LTG DSNT E SLP099 T03110171 $
Nowcast | as of 1:46 PM MST on September 2, 2015

Showers and thunderstorms...currently impacting portions of eastern Pima and Cochise County...will continue to increase in coverage through the afternoon hours as they move towards the north at 10 mph. Additional showers and storms are expected with the primary coverage roughly from the Tucson Metro area and east. The strongest storms will be capable of producing heavy rainfall...with amounts locally in excess of one inch...small hail...and wind gusts near 50 mph.

×

10-Day Weather Forecast

×

Almanac

Astronomy

Sep. 02, 2015 Rise Set
Actual Time
Civil Twilight
Nautical Twilight
Astronomical Twilight
Moon
Length of Visible Light
Length of Day
Tomorrow will be .
, % of the Moon is Illuminated

Today's Extremes

State Highs State Lows

Community

WunderPhotos

Upload Photos

1,851,822 photos uploaded!

WunderBlogs® & News

Nearby

Air Quality

  Air Quality AQ Index Pollutant
Not available.

Snow Depth

Station Depth Elevation

Earthquake Activity

City Distance Mag. Time & Date
Minimum magnitude displayed is 2.5.

Coastal Water Temperatures

Place Temperature

Stations

Nearby Weather Stations

Station Location Temp. Windchill Dew Point Humidity Wind Precip. Elev Updated Type